sensor_id;sensor_type;location;lat;lon;timestamp;temperature;humidity
23475;DHT22;11910;52.086;21.066;2022-11-23T00:00:23;2.90;99.90
23475;DHT22;11910;52.086;21.066;2022-11-23T00:02:56;2.90;99.90
23475;DHT22;11910;52.086;21.066;2022-11-23T00:05:22;2.90;99.90
23475;DHT22;11910;52.086;21.066;2022-11-23T00:07:48;3.00;99.90
23475;DHT22;11910;52.086;21.066;2022-11-23T00:10:14;2.90;99.90
23475;DHT22;11910;52.086;21.066;2022-11-23T00:12:40;2.90;99.90
23475;DHT22;11910;52.086;21.066;2022-11-23T00:15:06;2.80;99.90
23475;DHT22;11910;52.086;21.066;2022-11-23T00:17:32;2.90;99.90
23475;DHT22;11910;52.086;21.066;2022-11-23T00:19:58;2.80;99.90
23475;DHT22;11910;52.086;21.066;2022-11-23T00:22:24;2.90;99.90
23475;DHT22;11910;52.086;21.066;2022-11-23T00:24:50;2.80;99.90
23475;DHT22;11910;52.086;21.066;2022-11-23T00:27:15;2.80;99.90
23475;DHT22;11910;52.086;21.066;2022-11-23T00:29:41;2.70;99.90
23475;DHT22;11910;52.086;21.066;2022-11-23T00:32:07;2.80;99.90
23475;DHT22;11910;52.086;21.066;2022-11-23T00:34:32;2.80;99.90
23475;DHT22;11910;52.086;21.066;2022-11-23T00:36:58;2.70;99.90
23475;DHT22;11910;52.086;21.066;2022-11-23T00:39:24;2.70;99.90
23475;DHT22;11910;52.086;21.066;2022-11-23T00:41:49;2.70;99.90
23475;DHT22;11910;52.086;21.066;2022-11-23T00:44:15;2.70;99.90
23475;DHT22;11910;52.086;21.066;2022-11-23T00:46:41;2.70;99.90
23475;DHT22;11910;52.086;21.066;2022-11-23T00:49:06;2.70;99.90
23475;DHT22;11910;52.086;21.066;2022-11-23T00:51:34;2.70;99.90
23475;DHT22;11910;52.086;21.066;2022-11-23T00:54:01;2.70;99.90
23475;DHT22;11910;52.086;21.066;2022-11-23T00:56:28;2.70;99.90
23475;DHT22;11910;52.086;21.066;2022-11-23T00:58:56;2.60;99.90
23475;DHT22;11910;52.086;21.066;2022-11-23T01:01:25;2.60;99.90
23475;DHT22;11910;52.086;21.066;2022-11-23T01:03:53;2.60;99.90
23475;DHT22;11910;52.086;21.066;2022-11-23T01:06:25;2.60;99.90
23475;DHT22;11910;52.086;21.066;2022-11-23T01:08:53;2.50;99.90
23475;DHT22;11910;52.086;21.066;2022-11-23T01:11:20;2.70;99.90
23475;DHT22;11910;52.086;21.066;2022-11-23T01:13:46;2.70;99.90
23475;DHT22;11910;52.086;21.066;2022-11-23T01:16:20;2.60;99.90
23475;DHT22;11910;52.086;21.066;2022-11-23T01:18:46;2.70;99.90
23475;DHT22;11910;52.086;21.066;2022-11-23T01:21:12;2.60;99.90
23475;DHT22;11910;52.086;21.066;2022-11-23T01:23:38;2.60;99.90
23475;DHT22;11910;52.086;21.066;2022-11-23T01:26:08;2.50;99.90
23475;DHT22;11910;52.086;21.066;2022-11-23T01:28:34;2.60;99.90
23475;DHT22;11910;52.086;21.066;2022-11-23T01:31:05;2.60;99.90
23475;DHT22;11910;52.086;21.066;2022-11-23T01:33:31;2.60;99.90
23475;DHT22;11910;52.086;21.066;2022-11-23T01:35:57;2.50;99.90
23475;DHT22;11910;52.086;21.066;2022-11-23T01:38:22;2.40;99.90
23475;DHT22;11910;52.086;21.066;2022-11-23T01:40:48;2.40;99.90
23475;DHT22;11910;52.086;21.066;2022-11-23T01:43:16;2.40;99.90
23475;DHT22;11910;52.086;21.066;2022-11-23T01:46:04;2.40;99.90
23475;DHT22;11910;52.086;21.066;2022-11-23T01:48:33;2.40;99.90
23475;DHT22;11910;52.086;21.066;2022-11-23T01:51:03;2.40;99.90
23475;DHT22;11910;52.086;21.066;2022-11-23T01:53:31;2.40;99.90
23475;DHT22;11910;52.086;21.066;2022-11-23T01:55:59;2.30;99.90
23475;DHT22;11910;52.086;21.066;2022-11-23T01:58:27;2.30;99.90
23475;DHT22;11910;52.086;21.066;2022-11-23T02:00:54;2.30;99.90
23475;DHT22;11910;52.086;21.066;2022-11-23T02:03:19;2.30;99.90
23475;DHT22;11910;52.086;21.066;2022-11-23T02:05:50;2.30;99.90
23475;DHT22;11910;52.086;21.066;2022-11-23T02:08:19;2.30;99.90
23475;DHT22;11910;52.086;21.066;2022-11-23T02:10:46;2.30;99.90
23475;DHT22;11910;52.086;21.066;2022-11-23T02:13:12;2.30;99.90
23475;DHT22;11910;52.086;21.066;2022-11-23T02:15:39;2.40;99.90
23475;DHT22;11910;52.086;21.066;2022-11-23T02:18:11;2.40;99.90
23475;DHT22;11910;52.086;21.066;2022-11-23T02:20:38;2.50;99.90
23475;DHT22;11910;52.086;21.066;2022-11-23T02:28:04;2.40;99.90
23475;DHT22;11910;52.086;21.066;2022-11-23T02:30:31;2.30;99.90
23475;DHT22;11910;52.086;21.066;2022-11-23T02:32:57;2.30;99.90
23475;DHT22;11910;52.086;21.066;2022-11-23T02:35:23;2.30;99.90
23475;DHT22;11910;52.086;21.066;2022-11-23T02:37:49;2.40;99.90
23475;DHT22;11910;52.086;21.066;2022-11-23T02:40:27;2.40;99.90
23475;DHT22;11910;52.086;21.066;2022-11-23T02:42:54;2.40;99.90
23475;DHT22;11910;52.086;21.066;2022-11-23T02:45:42;2.40;99.90
23475;DHT22;11910;52.086;21.066;2022-11-23T02:48:10;2.30;99.90
23475;DHT22;11910;52.086;21.066;2022-11-23T02:50:35;2.30;99.90
23475;DHT22;11910;52.086;21.066;2022-11-23T02:53:01;2.30;99.90
23475;DHT22;11910;52.086;21.066;2022-11-23T02:55:27;2.30;99.90
23475;DHT22;11910;52.086;21.066;2022-11-23T02:57:52;2.20;99.90
23475;DHT22;11910;52.086;21.066;2022-11-23T03:00:18;2.20;99.90
23475;DHT22;11910;52.086;21.066;2022-11-23T03:02:44;2.30;99.90
23475;DHT22;11910;52.086;21.066;2022-11-23T03:05:09;2.30;99.90
23475;DHT22;11910;52.086;21.066;2022-11-23T03:07:35;2.40;99.90
23475;DHT22;11910;52.086;21.066;2022-11-23T03:10:01;2.40;99.90
23475;DHT22;11910;52.086;21.066;2022-11-23T03:12:26;2.40;99.90
23475;DHT22;11910;52.086;21.066;2022-11-23T03:14:52;2.40;99.90
23475;DHT22;11910;52.086;21.066;2022-11-23T03:17:18;2.30;99.90
23475;DHT22;11910;52.086;21.066;2022-11-23T03:19:43;2.20;99.90
23475;DHT22;11910;52.086;21.066;2022-11-23T03:22:09;2.20;99.90
23475;DHT22;11910;52.086;21.066;2022-11-23T03:24:35;2.20;99.90
23475;DHT22;11910;52.086;21.066;2022-11-23T03:27:01;2.20;99.90
23475;DHT22;11910;52.086;21.066;2022-11-23T03:29:26;2.20;99.90
23475;DHT22;11910;52.086;21.066;2022-11-23T03:31:53;2.30;99.90
23475;DHT22;11910;52.086;21.066;2022-11-23T03:34:19;2.30;99.90
23475;DHT22;11910;52.086;21.066;2022-11-23T03:36:44;2.20;99.90
23475;DHT22;11910;52.086;21.066;2022-11-23T03:39:10;2.30;99.90
23475;DHT22;11910;52.086;21.066;2022-11-23T03:41:35;2.30;99.90
23475;DHT22;11910;52.086;21.066;2022-11-23T03:44:01;2.40;99.90
23475;DHT22;11910;52.086;21.066;2022-11-23T03:46:27;2.50;99.90
23475;DHT22;11910;52.086;21.066;2022-11-23T03:48:53;2.50;99.90
23475;DHT22;11910;52.086;21.066;2022-11-23T03:51:18;2.50;99.90
23475;DHT22;11910;52.086;21.066;2022-11-23T03:53:44;2.40;99.90
23475;DHT22;11910;52.086;21.066;2022-11-23T03:56:09;2.40;99.90
23475;DHT22;11910;52.086;21.066;2022-11-23T03:58:35;2.40;99.90
23475;DHT22;11910;52.086;21.066;2022-11-23T04:01:01;2.40;99.90
23475;DHT22;11910;52.086;21.066;2022-11-23T04:03:26;2.40;99.90
23475;DHT22;11910;52.086;21.066;2022-11-23T04:05:52;2.30;99.90
23475;DHT22;11910;52.086;21.066;2022-11-23T04:08:18;2.30;99.90
23475;DHT22;11910;52.086;21.066;2022-11-23T04:10:44;2.20;99.90
23475;DHT22;11910;52.086;21.066;2022-11-23T04:13:09;2.20;99.90
23475;DHT22;11910;52.086;21.066;2022-11-23T04:15:35;2.20;99.90
23475;DHT22;11910;52.086;21.066;2022-11-23T04:18:00;2.20;99.90
23475;DHT22;11910;52.086;21.066;2022-11-23T04:20:26;2.30;99.90
23475;DHT22;11910;52.086;21.066;2022-11-23T04:22:52;2.30;99.90
23475;DHT22;11910;52.086;21.066;2022-11-23T04:25:18;2.40;99.90
23475;DHT22;11910;52.086;21.066;2022-11-23T04:27:44;2.50;99.90
23475;DHT22;11910;52.086;21.066;2022-11-23T04:30:10;2.40;99.90
23475;DHT22;11910;52.086;21.066;2022-11-23T04:32:36;2.40;99.90
23475;DHT22;11910;52.086;21.066;2022-11-23T04:35:01;2.40;99.90
23475;DHT22;11910;52.086;21.066;2022-11-23T04:37:27;2.40;99.90
23475;DHT22;11910;52.086;21.066;2022-11-23T04:39:53;2.40;99.90
23475;DHT22;11910;52.086;21.066;2022-11-23T04:42:18;2.40;99.90
23475;DHT22;11910;52.086;21.066;2022-11-23T04:44:45;2.50;99.90
23475;DHT22;11910;52.086;21.066;2022-11-23T04:47:11;2.50;99.90
23475;DHT22;11910;52.086;21.066;2022-11-23T04:49:37;2.40;99.90
23475;DHT22;11910;52.086;21.066;2022-11-23T04:52:03;2.30;99.90
23475;DHT22;11910;52.086;21.066;2022-11-23T04:54:29;2.20;99.90
23475;DHT22;11910;52.086;21.066;2022-11-23T04:56:54;2.20;99.90
23475;DHT22;11910;52.086;21.066;2022-11-23T04:59:21;2.20;99.90
23475;DHT22;11910;52.086;21.066;2022-11-23T05:01:50;2.20;99.90
23475;DHT22;11910;52.086;21.066;2022-11-23T05:04:19;2.30;99.90
23475;DHT22;11910;52.086;21.066;2022-11-23T05:06:45;2.30;99.90
23475;DHT22;11910;52.086;21.066;2022-11-23T05:09:11;2.30;99.90
23475;DHT22;11910;52.086;21.066;2022-11-23T05:11:37;2.20;99.90
23475;DHT22;11910;52.086;21.066;2022-11-23T05:14:03;2.30;99.90
23475;DHT22;11910;52.086;21.066;2022-11-23T05:16:28;2.20;99.90
23475;DHT22;11910;52.086;21.066;2022-11-23T05:18:54;2.20;99.90
23475;DHT22;11910;52.086;21.066;2022-11-23T05:21:20;2.20;99.90
23475;DHT22;11910;52.086;21.066;2022-11-23T05:23:45;2.20;99.90
23475;DHT22;11910;52.086;21.066;2022-11-23T05:26:11;2.30;99.90
23475;DHT22;11910;52.086;21.066;2022-11-23T05:28:37;2.40;99.90
23475;DHT22;11910;52.086;21.066;2022-11-23T05:31:03;2.30;99.90
23475;DHT22;11910;52.086;21.066;2022-11-23T05:33:29;2.20;99.90
23475;DHT22;11910;52.086;21.066;2022-11-23T05:35:54;2.20;99.90
23475;DHT22;11910;52.086;21.066;2022-11-23T05:38:20;2.20;99.90
23475;DHT22;11910;52.086;21.066;2022-11-23T05:40:46;2.10;99.90
23475;DHT22;11910;52.086;21.066;2022-11-23T05:43:11;2.00;99.90
23475;DHT22;11910;52.086;21.066;2022-11-23T05:45:37;2.00;99.90
23475;DHT22;11910;52.086;21.066;2022-11-23T05:48:03;2.00;99.90
23475;DHT22;11910;52.086;21.066;2022-11-23T05:50:29;2.10;99.90
23475;DHT22;11910;52.086;21.066;2022-11-23T05:52:57;2.00;99.90
23475;DHT22;11910;52.086;21.066;2022-11-23T05:55:23;2.10;99.90
23475;DHT22;11910;52.086;21.066;2022-11-23T05:57:49;2.10;99.90
23475;DHT22;11910;52.086;21.066;2022-11-23T06:00:15;2.10;99.90
23475;DHT22;11910;52.086;21.066;2022-11-23T06:02:41;2.10;99.90
23475;DHT22;11910;52.086;21.066;2022-11-23T06:05:07;2.10;99.90
23475;DHT22;11910;52.086;21.066;2022-11-23T06:07:34;2.10;99.90
23475;DHT22;11910;52.086;21.066;2022-11-23T06:10:00;2.10;99.90
23475;DHT22;11910;52.086;21.066;2022-11-23T06:12:27;2.20;99.90
23475;DHT22;11910;52.086;21.066;2022-11-23T06:14:53;2.10;99.90
23475;DHT22;11910;52.086;21.066;2022-11-23T06:17:19;2.10;99.90
23475;DHT22;11910;52.086;21.066;2022-11-23T06:19:44;2.00;99.90
23475;DHT22;11910;52.086;21.066;2022-11-23T06:22:10;2.00;99.90
23475;DHT22;11910;52.086;21.066;2022-11-23T06:24:36;2.10;99.90
23475;DHT22;11910;52.086;21.066;2022-11-23T06:27:01;2.20;99.90
23475;DHT22;11910;52.086;21.066;2022-11-23T06:29:27;2.20;99.90
23475;DHT22;11910;52.086;21.066;2022-11-23T06:31:52;2.40;99.90
23475;DHT22;11910;52.086;21.066;2022-11-23T06:34:19;2.50;99.90
23475;DHT22;11910;52.086;21.066;2022-11-23T06:36:45;2.40;99.90
23475;DHT22;11910;52.086;21.066;2022-11-23T06:39:10;2.50;99.90
23475;DHT22;11910;52.086;21.066;2022-11-23T06:41:36;2.50;99.90
23475;DHT22;11910;52.086;21.066;2022-11-23T06:44:02;2.50;99.90
23475;DHT22;11910;52.086;21.066;2022-11-23T06:46:27;2.50;99.90
23475;DHT22;11910;52.086;21.066;2022-11-23T06:48:53;2.50;99.90
23475;DHT22;11910;52.086;21.066;2022-11-23T06:51:19;2.50;99.90
23475;DHT22;11910;52.086;21.066;2022-11-23T06:53:44;2.50;99.90
23475;DHT22;11910;52.086;21.066;2022-11-23T06:56:10;2.50;99.90
23475;DHT22;11910;52.086;21.066;2022-11-23T06:58:36;2.40;99.90
23475;DHT22;11910;52.086;21.066;2022-11-23T07:01:04;2.40;99.90
23475;DHT22;11910;52.086;21.066;2022-11-23T07:03:30;2.50;99.90
23475;DHT22;11910;52.086;21.066;2022-11-23T07:05:56;2.50;99.90
23475;DHT22;11910;52.086;21.066;2022-11-23T07:08:22;2.50;99.90
23475;DHT22;11910;52.086;21.066;2022-11-23T07:10:48;2.50;99.90
23475;DHT22;11910;52.086;21.066;2022-11-23T07:13:14;2.40;99.90
23475;DHT22;11910;52.086;21.066;2022-11-23T07:15:41;2.50;99.90
23475;DHT22;11910;52.086;21.066;2022-11-23T07:18:08;2.60;99.90
23475;DHT22;11910;52.086;21.066;2022-11-23T07:20:35;2.60;99.90
23475;DHT22;11910;52.086;21.066;2022-11-23T07:23:03;2.60;99.90
23475;DHT22;11910;52.086;21.066;2022-11-23T07:25:30;2.60;99.90
23475;DHT22;11910;52.086;21.066;2022-11-23T07:27:57;2.60;99.90
23475;DHT22;11910;52.086;21.066;2022-11-23T07:30:28;2.60;99.90
23475;DHT22;11910;52.086;21.066;2022-11-23T07:32:58;2.60;99.90
23475;DHT22;11910;52.086;21.066;2022-11-23T07:35:24;2.60;99.90
23475;DHT22;11910;52.086;21.066;2022-11-23T07:37:49;2.60;99.90
23475;DHT22;11910;52.086;21.066;2022-11-23T07:40:15;2.60;99.80
23475;DHT22;11910;52.086;21.066;2022-11-23T07:42:40;2.50;99.50
23475;DHT22;11910;52.086;21.066;2022-11-23T07:45:07;2.60;99.60
23475;DHT22;11910;52.086;21.066;2022-11-23T07:47:33;2.50;99.50
23475;DHT22;11910;52.086;21.066;2022-11-23T07:49:59;2.40;99.60
23475;DHT22;11910;52.086;21.066;2022-11-23T07:52:25;2.40;99.70
23475;DHT22;11910;52.086;21.066;2022-11-23T07:54:51;2.40;99.70
23475;DHT22;11910;52.086;21.066;2022-11-23T07:57:16;2.40;99.70
23475;DHT22;11910;52.086;21.066;2022-11-23T07:59:42;2.40;99.60
23475;DHT22;11910;52.086;21.066;2022-11-23T08:02:13;2.40;99.60
23475;DHT22;11910;52.086;21.066;2022-11-23T08:04:39;2.50;99.60
23475;DHT22;11910;52.086;21.066;2022-11-23T08:07:05;2.50;99.30
23475;DHT22;11910;52.086;21.066;2022-11-23T08:09:31;2.40;99.50
23475;DHT22;11910;52.086;21.066;2022-11-23T08:11:57;2.40;99.50
23475;DHT22;11910;52.086;21.066;2022-11-23T08:14:23;2.20;99.70
23475;DHT22;11910;52.086;21.066;2022-11-23T08:16:49;2.20;99.90
23475;DHT22;11910;52.086;21.066;2022-11-23T08:19:16;2.30;99.80
23475;DHT22;11910;52.086;21.066;2022-11-23T08:21:42;2.40;99.60
23475;DHT22;11910;52.086;21.066;2022-11-23T08:24:08;2.40;99.40
23475;DHT22;11910;52.086;21.066;2022-11-23T08:26:33;2.30;99.40
23475;DHT22;11910;52.086;21.066;2022-11-23T08:28:59;2.20;99.50
23475;DHT22;11910;52.086;21.066;2022-11-23T08:31:24;2.20;99.50
23475;DHT22;11910;52.086;21.066;2022-11-23T08:33:50;2.30;99.60
23475;DHT22;11910;52.086;21.066;2022-11-23T08:36:16;2.40;99.40
23475;DHT22;11910;52.086;21.066;2022-11-23T08:38:42;2.30;99.30
23475;DHT22;11910;52.086;21.066;2022-11-23T08:41:07;2.40;99.40
23475;DHT22;11910;52.086;21.066;2022-11-23T08:43:34;2.40;99.60
23475;DHT22;11910;52.086;21.066;2022-11-23T08:46:01;2.40;99.40
23475;DHT22;11910;52.086;21.066;2022-11-23T08:48:27;2.40;99.30
23475;DHT22;11910;52.086;21.066;2022-11-23T08:50:56;2.40;98.90
23475;DHT22;11910;52.086;21.066;2022-11-23T08:53:22;2.40;99.20
23475;DHT22;11910;52.086;21.066;2022-11-23T08:55:48;2.20;99.20
23475;DHT22;11910;52.086;21.066;2022-11-23T08:58:13;2.20;99.50
23475;DHT22;11910;52.086;21.066;2022-11-23T09:00:39;2.20;99.50
23475;DHT22;11910;52.086;21.066;2022-11-23T09:03:05;2.10;99.50
23475;DHT22;11910;52.086;21.066;2022-11-23T09:05:30;2.20;99.70
23475;DHT22;11910;52.086;21.066;2022-11-23T09:07:59;2.10;99.40
23475;DHT22;11910;52.086;21.066;2022-11-23T09:10:26;2.10;99.50
23475;DHT22;11910;52.086;21.066;2022-11-23T09:12:52;2.20;99.40
23475;DHT22;11910;52.086;21.066;2022-11-23T09:15:18;2.20;99.30
23475;DHT22;11910;52.086;21.066;2022-11-23T09:17:46;2.20;99.20
23475;DHT22;11910;52.086;21.066;2022-11-23T09:20:11;2.20;99.40
23475;DHT22;11910;52.086;21.066;2022-11-23T09:22:38;2.20;99.40
23475;DHT22;11910;52.086;21.066;2022-11-23T09:25:04;2.30;99.40
23475;DHT22;11910;52.086;21.066;2022-11-23T09:27:31;2.40;99.20
23475;DHT22;11910;52.086;21.066;2022-11-23T09:29:57;2.50;99.30
23475;DHT22;11910;52.086;21.066;2022-11-23T09:32:22;2.50;99.00
23475;DHT22;11910;52.086;21.066;2022-11-23T09:34:48;2.60;98.70
23475;DHT22;11910;52.086;21.066;2022-11-23T09:37:14;2.50;98.70
23475;DHT22;11910;52.086;21.066;2022-11-23T09:39:40;2.40;98.70
23475;DHT22;11910;52.086;21.066;2022-11-23T09:50:49;2.60;98.90
23475;DHT22;11910;52.086;21.066;2022-11-23T09:55:48;2.70;98.60
23475;DHT22;11910;52.086;21.066;2022-11-23T09:58:17;2.80;98.40
23475;DHT22;11910;52.086;21.066;2022-11-23T10:00:59;2.80;98.20
23475;DHT22;11910;52.086;21.066;2022-11-23T10:03:27;2.70;98.40
23475;DHT22;11910;52.086;21.066;2022-11-23T10:06:24;2.80;98.40
23475;DHT22;11910;52.086;21.066;2022-11-23T10:12:11;2.60;98.40
23475;DHT22;11910;52.086;21.066;2022-11-23T10:15:02;2.40;98.60
23475;DHT22;11910;52.086;21.066;2022-11-23T10:23:33;2.20;99.10
23475;DHT22;11910;52.086;21.066;2022-11-23T10:26:02;2.30;98.90
23475;DHT22;11910;52.086;21.066;2022-11-23T10:28:29;2.30;99.00
23475;DHT22;11910;52.086;21.066;2022-11-23T10:31:21;2.20;99.30
23475;DHT22;11910;52.086;21.066;2022-11-23T10:33:56;2.30;99.10
23475;DHT22;11910;52.086;21.066;2022-11-23T10:36:22;2.30;99.20
23475;DHT22;11910;52.086;21.066;2022-11-23T10:38:56;2.40;99.30
23475;DHT22;11910;52.086;21.066;2022-11-23T10:41:22;2.50;99.10
23475;DHT22;11910;52.086;21.066;2022-11-23T10:46:40;2.30;98.80
23475;DHT22;11910;52.086;21.066;2022-11-23T10:49:19;2.30;99.30
23475;DHT22;11910;52.086;21.066;2022-11-23T10:51:49;2.50;99.10
23475;DHT22;11910;52.086;21.066;2022-11-23T10:54:28;2.60;98.90
23475;DHT22;11910;52.086;21.066;2022-11-23T10:56:56;2.50;98.70
23475;DHT22;11910;52.086;21.066;2022-11-23T10:59:28;2.50;98.80
23475;DHT22;11910;52.086;21.066;2022-11-23T11:02:07;2.70;98.80
23475;DHT22;11910;52.086;21.066;2022-11-23T11:04:35;2.80;98.40
23475;DHT22;11910;52.086;21.066;2022-11-23T11:07:24;2.80;98.10
23475;DHT22;11910;52.086;21.066;2022-11-23T11:09:53;2.70;98.00
23475;DHT22;11910;52.086;21.066;2022-11-23T11:12:19;2.60;98.40
23475;DHT22;11910;52.086;21.066;2022-11-23T11:17:27;2.70;98.50
23475;DHT22;11910;52.086;21.066;2022-11-23T11:19:52;2.80;98.20
23475;DHT22;11910;52.086;21.066;2022-11-23T11:22:29;2.90;98.00
23475;DHT22;11910;52.086;21.066;2022-11-23T11:24:57;2.90;98.00
23475;DHT22;11910;52.086;21.066;2022-11-23T11:27:26;2.90;97.80
23475;DHT22;11910;52.086;21.066;2022-11-23T11:29:55;2.90;97.70
23475;DHT22;11910;52.086;21.066;2022-11-23T11:37:50;2.80;97.60
23475;DHT22;11910;52.086;21.066;2022-11-23T11:40:43;2.80;97.90
23475;DHT22;11910;52.086;21.066;2022-11-23T11:43:10;2.70;97.60
23475;DHT22;11910;52.086;21.066;2022-11-23T11:45:47;2.60;98.10
23475;DHT22;11910;52.086;21.066;2022-11-23T11:48:29;2.70;97.90
23475;DHT22;11910;52.086;21.066;2022-11-23T11:51:21;2.70;98.00
23475;DHT22;11910;52.086;21.066;2022-11-23T11:56:41;2.60;98.00
23475;DHT22;11910;52.086;21.066;2022-11-23T11:59:35;2.50;98.00
23475;DHT22;11910;52.086;21.066;2022-11-23T12:02:15;2.50;98.40
23475;DHT22;11910;52.086;21.066;2022-11-23T12:04:48;2.40;98.30
23475;DHT22;11910;52.086;21.066;2022-11-23T12:10:04;2.40;98.60
23475;DHT22;11910;52.086;21.066;2022-11-23T12:12:33;2.50;98.70
23475;DHT22;11910;52.086;21.066;2022-11-23T12:14:59;2.50;98.40
23475;DHT22;11910;52.086;21.066;2022-11-23T12:17:49;2.60;98.40
23475;DHT22;11910;52.086;21.066;2022-11-23T12:23:37;2.60;98.30
23475;DHT22;11910;52.086;21.066;2022-11-23T12:31:50;2.80;98.00
23475;DHT22;11910;52.086;21.066;2022-11-23T12:37:10;3.00;97.80
23475;DHT22;11910;52.086;21.066;2022-11-23T12:42:45;3.00;98.00
23475;DHT22;11910;52.086;21.066;2022-11-23T12:50:37;3.00;97.60
23475;DHT22;11910;52.086;21.066;2022-11-23T12:53:36;3.00;97.70
23475;DHT22;11910;52.086;21.066;2022-11-23T12:58:32;2.90;97.50
23475;DHT22;11910;52.086;21.066;2022-11-23T13:01:27;2.90;97.80
23475;DHT22;11910;52.086;21.066;2022-11-23T13:04:15;3.00;97.90
23475;DHT22;11910;52.086;21.066;2022-11-23T13:12:33;3.00;97.60
23475;DHT22;11910;52.086;21.066;2022-11-23T13:15:18;3.00;97.50
23475;DHT22;11910;52.086;21.066;2022-11-23T13:23:34;2.90;97.40
23475;DHT22;11910;52.086;21.066;2022-11-23T13:26:20;2.90;97.50
23475;DHT22;11910;52.086;21.066;2022-11-23T13:28:48;2.80;97.30
23475;DHT22;11910;52.086;21.066;2022-11-23T13:33:40;2.80;97.50
23475;DHT22;11910;52.086;21.066;2022-11-23T13:36:11;2.70;97.50
23475;DHT22;11910;52.086;21.066;2022-11-23T13:38:43;2.70;97.80
23475;DHT22;11910;52.086;21.066;2022-11-23T13:46:45;2.60;97.60
23475;DHT22;11910;52.086;21.066;2022-11-23T13:49:31;2.60;97.50
23475;DHT22;11910;52.086;21.066;2022-11-23T13:52:23;2.70;97.50
23475;DHT22;11910;52.086;21.066;2022-11-23T13:57:42;2.60;97.40
23475;DHT22;11910;52.086;21.066;2022-11-23T14:00:43;2.60;97.50
23475;DHT22;11910;52.086;21.066;2022-11-23T14:08:45;2.50;97.60
23475;DHT22;11910;52.086;21.066;2022-11-23T14:11:14;2.50;97.80
23475;DHT22;11910;52.086;21.066;2022-11-23T14:13:52;2.60;97.80
23475;DHT22;11910;52.086;21.066;2022-11-23T14:17:00;2.70;98.00
23475;DHT22;11910;52.086;21.066;2022-11-23T14:19:47;2.70;97.40
23475;DHT22;11910;52.086;21.066;2022-11-23T14:33:35;2.60;97.50
23475;DHT22;11910;52.086;21.066;2022-11-23T14:41:38;2.30;98.00
23475;DHT22;11910;52.086;21.066;2022-11-23T14:44:11;2.30;98.10
23475;DHT22;11910;52.086;21.066;2022-11-23T14:47:02;2.40;98.10
23475;DHT22;11910;52.086;21.066;2022-11-23T14:49:28;2.50;97.90
23475;DHT22;11910;52.086;21.066;2022-11-23T14:51:55;2.40;97.70
23475;DHT22;11910;52.086;21.066;2022-11-23T14:54:21;2.40;97.80
23475;DHT22;11910;52.086;21.066;2022-11-23T14:56:48;2.40;97.90
23475;DHT22;11910;52.086;21.066;2022-11-23T14:59:36;2.40;97.90
23475;DHT22;11910;52.086;21.066;2022-11-23T15:04:58;2.50;97.90
23475;DHT22;11910;52.086;21.066;2022-11-23T15:07:27;2.50;97.70
23475;DHT22;11910;52.086;21.066;2022-11-23T15:10:06;2.60;97.60
23475;DHT22;11910;52.086;21.066;2022-11-23T15:12:42;2.60;97.50
23475;DHT22;11910;52.086;21.066;2022-11-23T15:15:21;2.40;97.40
23475;DHT22;11910;52.086;21.066;2022-11-23T15:17:55;2.40;97.70
23475;DHT22;11910;52.086;21.066;2022-11-23T15:20:24;2.40;97.80
23475;DHT22;11910;52.086;21.066;2022-11-23T15:22:51;2.40;97.60
23475;DHT22;11910;52.086;21.066;2022-11-23T15:25:17;2.40;97.80
23475;DHT22;11910;52.086;21.066;2022-11-23T15:27:46;2.40;97.80
23475;DHT22;11910;52.086;21.066;2022-11-23T15:30:18;2.50;97.70
23475;DHT22;11910;52.086;21.066;2022-11-23T15:32:53;2.60;97.60
23475;DHT22;11910;52.086;21.066;2022-11-23T15:35:21;2.60;97.40
23475;DHT22;11910;52.086;21.066;2022-11-23T15:37:48;2.60;97.50
23475;DHT22;11910;52.086;21.066;2022-11-23T15:40:16;2.60;97.50
23475;DHT22;11910;52.086;21.066;2022-11-23T15:42:47;2.50;97.40
23475;DHT22;11910;52.086;21.066;2022-11-23T15:48:01;2.50;97.50
23475;DHT22;11910;52.086;21.066;2022-11-23T15:50:26;2.50;97.70
23475;DHT22;11910;52.086;21.066;2022-11-23T15:52:52;2.50;97.60
23475;DHT22;11910;52.086;21.066;2022-11-23T15:55:18;2.50;97.60
23475;DHT22;11910;52.086;21.066;2022-11-23T15:57:51;2.50;97.60
23475;DHT22;11910;52.086;21.066;2022-11-23T16:00:23;2.50;97.50
23475;DHT22;11910;52.086;21.066;2022-11-23T16:02:50;2.50;97.60
23475;DHT22;11910;52.086;21.066;2022-11-23T16:05:17;2.50;97.70
23475;DHT22;11910;52.086;21.066;2022-11-23T16:07:59;2.60;97.60
23475;DHT22;11910;52.086;21.066;2022-11-23T16:10:30;2.60;97.50
23475;DHT22;11910;52.086;21.066;2022-11-23T16:13:01;2.50;97.50
23475;DHT22;11910;52.086;21.066;2022-11-23T16:18:00;2.50;97.50
23475;DHT22;11910;52.086;21.066;2022-11-23T16:20:26;2.50;97.50
23475;DHT22;11910;52.086;21.066;2022-11-23T16:22:55;2.40;97.50
23475;DHT22;11910;52.086;21.066;2022-11-23T16:25:33;2.50;97.50
23475;DHT22;11910;52.086;21.066;2022-11-23T16:28:13;2.50;97.50
23475;DHT22;11910;52.086;21.066;2022-11-23T16:30:42;2.50;97.50
23475;DHT22;11910;52.086;21.066;2022-11-23T16:33:16;2.40;97.50
23475;DHT22;11910;52.086;21.066;2022-11-23T16:35:42;2.40;97.80
23475;DHT22;11910;52.086;21.066;2022-11-23T16:38:08;2.40;97.40
23475;DHT22;11910;52.086;21.066;2022-11-23T16:40:34;2.40;97.20
23475;DHT22;11910;52.086;21.066;2022-11-23T16:42:59;2.40;97.30
23475;DHT22;11910;52.086;21.066;2022-11-23T16:45:25;2.40;97.30
23475;DHT22;11910;52.086;21.066;2022-11-23T16:47:59;2.30;97.40
23475;DHT22;11910;52.086;21.066;2022-11-23T16:50:31;2.30;97.30
23475;DHT22;11910;52.086;21.066;2022-11-23T16:53:14;2.40;97.30
23475;DHT22;11910;52.086;21.066;2022-11-23T16:55:40;2.40;97.30
23475;DHT22;11910;52.086;21.066;2022-11-23T16:58:08;2.40;97.20
23475;DHT22;11910;52.086;21.066;2022-11-23T17:00:38;2.30;97.20
23475;DHT22;11910;52.086;21.066;2022-11-23T17:03:04;2.20;97.10
23475;DHT22;11910;52.086;21.066;2022-11-23T17:05:30;2.20;97.40
23475;DHT22;11910;52.086;21.066;2022-11-23T17:07:55;2.10;97.30
23475;DHT22;11910;52.086;21.066;2022-11-23T17:10:21;2.00;97.50
23475;DHT22;11910;52.086;21.066;2022-11-23T17:12:53;2.00;97.60
23475;DHT22;11910;52.086;21.066;2022-11-23T17:15:21;2.10;97.60
23475;DHT22;11910;52.086;21.066;2022-11-23T17:17:47;2.00;97.60
23475;DHT22;11910;52.086;21.066;2022-11-23T17:20:15;2.10;97.80
23475;DHT22;11910;52.086;21.066;2022-11-23T17:22:40;2.10;97.70
23475;DHT22;11910;52.086;21.066;2022-11-23T17:25:07;2.10;97.70
23475;DHT22;11910;52.086;21.066;2022-11-23T17:27:35;2.10;97.60
23475;DHT22;11910;52.086;21.066;2022-11-23T17:30:08;2.20;97.50
23475;DHT22;11910;52.086;21.066;2022-11-23T17:32:35;2.20;97.40
23475;DHT22;11910;52.086;21.066;2022-11-23T17:35:01;2.20;97.30
23475;DHT22;11910;52.086;21.066;2022-11-23T17:37:26;2.20;97.40